createdAt,value
2018-10-21T00:01:32.358Z,72.20
2018-10-21T00:03:59.770Z,72.10
2018-10-21T00:06:27.169Z,71.90
2018-10-21T00:08:54.661Z,71.70
2018-10-21T00:11:22.309Z,71.20
2018-10-21T00:13:49.776Z,70.90
2018-10-21T00:16:17.228Z,70.50
2018-10-21T00:18:44.698Z,69.90
2018-10-21T00:21:12.235Z,69.90
2018-10-21T00:23:39.601Z,70.70
2018-10-21T00:26:07.006Z,71.20
2018-10-21T00:28:34.542Z,70.90
2018-10-21T00:31:01.979Z,71.10
2018-10-21T00:33:29.441Z,70.70
2018-10-21T00:35:56.871Z,70.20
2018-10-21T00:38:24.331Z,69.80
2018-10-21T00:40:51.786Z,70.20
2018-10-21T00:43:19.164Z,70.30
2018-10-21T00:45:46.540Z,70.80
2018-10-21T00:48:14.005Z,71.20
2018-10-21T00:50:41.446Z,71.40
2018-10-21T00:53:08.913Z,71.80
2018-10-21T00:55:36.343Z,71.20
2018-10-21T00:58:03.961Z,71.40
2018-10-21T01:00:31.373Z,71.00
2018-10-21T01:02:58.871Z,71.20
2018-10-21T01:05:26.362Z,70.60
2018-10-21T01:07:53.831Z,71.10
2018-10-21T01:10:21.241Z,71.40
2018-10-21T01:12:48.647Z,72.30
2018-10-21T01:15:16.117Z,70.90
2018-10-21T01:17:43.487Z,71.00
2018-10-21T01:20:11.904Z,71.00
2018-10-21T01:22:39.874Z,71.40
2018-10-21T01:25:08.112Z,71.40
2018-10-21T01:27:35.672Z,70.80
2018-10-21T01:30:03.694Z,70.60
2018-10-21T01:32:31.121Z,71.00
2018-10-21T01:34:58.641Z,71.00
2018-10-21T01:37:26.094Z,71.50
2018-10-21T01:40:57.072Z,71.20
2018-10-21T01:43:28.557Z,71.90
2018-10-21T01:45:56.396Z,71.80
2018-10-21T01:48:25.009Z,71.50
2018-10-21T01:50:52.494Z,71.50
2018-10-21T01:53:20.495Z,71.40
2018-10-21T01:55:48.043Z,71.50
2018-10-21T01:58:15.389Z,70.70
2018-10-21T02:00:43.004Z,69.90
2018-10-21T02:03:10.506Z,69.80
2018-10-21T02:05:38.557Z,69.40
2018-10-21T02:08:06.062Z,69.50
2018-10-21T02:10:33.481Z,69.70
2018-10-21T02:13:01.060Z,69.70
2018-10-21T02:15:28.534Z,70.10
2018-10-21T02:17:56.077Z,70.20
2018-10-21T02:20:23.974Z,70.10
2018-10-21T02:22:51.809Z,70.70
2018-10-21T02:25:19.188Z,70.20
2018-10-21T02:27:47.269Z,70.20
2018-10-21T02:30:16.751Z,70.30
2018-10-21T02:32:44.993Z,70.50
2018-10-21T02:35:13.042Z,71.00
2018-10-21T02:37:40.904Z,71.50
2018-10-21T02:41:35.419Z,72.00
2018-10-21T02:44:03.624Z,71.70
2018-10-21T02:46:31.624Z,71.50
2018-10-21T02:48:59.614Z,71.50
2018-10-21T02:51:27.064Z,71.60
2018-10-21T02:53:54.552Z,71.40
2018-10-21T02:56:22.098Z,72.10
2018-10-21T02:58:49.710Z,71.80
2018-10-21T03:01:17.189Z,71.00
2018-10-21T03:03:44.686Z,71.20
2018-10-21T03:06:12.118Z,71.00
2018-10-21T03:08:39.595Z,71.10
2018-10-21T03:11:07.053Z,70.80
2018-10-21T03:13:34.605Z,70.70
2018-10-21T03:16:02.609Z,70.60
2018-10-21T03:18:30.521Z,70.60
2018-10-21T03:20:58.080Z,70.70
2018-10-21T03:23:25.741Z,70.70
2018-10-21T03:25:53.213Z,70.80
2018-10-21T03:28:20.726Z,70.70
2018-10-21T03:30:48.269Z,70.90
2018-10-21T03:33:15.969Z,70.70
2018-10-21T03:35:43.116Z,70.80
2018-10-21T03:38:10.609Z,70.40
2018-10-21T03:40:38.089Z,71.10
2018-10-21T03:43:05.542Z,71.20
2018-10-21T03:45:32.985Z,70.80
2018-10-21T03:48:00.469Z,70.70
2018-10-21T03:50:28.178Z,70.70
2018-10-21T03:52:55.868Z,69.90
2018-10-21T03:55:23.428Z,69.90
2018-10-21T03:57:50.992Z,69.70
2018-10-21T04:00:18.653Z,70.60
2018-10-21T04:02:46.057Z,70.60
2018-10-21T04:05:13.519Z,71.10
2018-10-21T04:07:41.227Z,71.20
2018-10-21T04:10:08.704Z,71.70
2018-10-21T04:12:36.122Z,72.10
2018-10-21T04:15:03.784Z,72.50
2018-10-21T04:17:31.361Z,72.60
2018-10-21T04:19:58.777Z,72.60
2018-10-21T04:22:26.159Z,72.60
2018-10-21T04:24:53.633Z,72.60
2018-10-21T04:27:21.140Z,72.70
2018-10-21T04:29:48.560Z,72.60
2018-10-21T04:32:16.070Z,71.80
2018-10-21T04:34:43.413Z,71.20
2018-10-21T04:39:24.426Z,70.70
2018-10-21T04:41:51.908Z,70.10
2018-10-21T04:44:19.410Z,69.40
2018-10-21T04:46:46.929Z,69.60
2018-10-21T04:49:14.296Z,70.00
2018-10-21T04:51:41.789Z,69.80
2018-10-21T04:54:09.200Z,70.10
2018-10-21T04:56:36.614Z,70.30
2018-10-21T04:59:04.387Z,70.50
2018-10-21T05:01:31.903Z,70.80
2018-10-21T05:03:59.431Z,72.10
2018-10-21T05:06:26.823Z,72.50
2018-10-21T05:08:54.333Z,73.70
2018-10-21T05:11:21.828Z,74.40
2018-10-21T05:13:49.301Z,75.40
2018-10-21T05:16:16.816Z,75.20
2018-10-21T05:18:44.305Z,75.30
2018-10-21T05:21:11.792Z,75.30
2018-10-21T05:23:39.210Z,75.50
2018-10-21T05:26:06.634Z,75.50
2018-10-21T05:28:34.042Z,75.50
2018-10-21T05:31:01.548Z,75.60
2018-10-21T05:33:28.998Z,75.30
2018-10-21T05:35:56.437Z,75.50
2018-10-21T05:38:23.934Z,75.50
2018-10-21T05:40:51.367Z,75.00
2018-10-21T05:43:18.840Z,75.80
2018-10-21T05:45:46.255Z,74.90
2018-10-21T05:48:13.804Z,74.90
2018-10-21T05:50:41.287Z,74.80
2018-10-21T05:53:08.684Z,74.80
2018-10-21T05:55:36.049Z,74.80
2018-10-21T05:58:03.631Z,74.90
2018-10-21T06:00:30.966Z,74.90
2018-10-21T06:02:58.372Z,75.30
2018-10-21T06:05:31.288Z,75.50
2018-10-21T06:07:58.713Z,76.10
2018-10-21T06:10:26.182Z,76.10
2018-10-21T06:12:53.576Z,75.70
2018-10-21T06:15:20.996Z,75.50
2018-10-21T06:17:48.441Z,75.80
2018-10-21T06:20:23.355Z,75.60
2018-10-21T06:22:50.978Z,75.50
2018-10-21T06:25:18.521Z,75.70
2018-10-21T06:27:46.111Z,75.90
2018-10-21T06:30:13.480Z,75.50
2018-10-21T06:32:41.067Z,75.60
2018-10-21T06:35:09.011Z,76.10
2018-10-21T06:37:36.566Z,75.90
2018-10-21T06:40:05.273Z,76.20
2018-10-21T06:42:32.768Z,75.50
2018-10-21T06:45:00.190Z,75.50
2018-10-21T06:47:27.964Z,75.50
2018-10-21T06:49:55.429Z,75.60
2018-10-21T06:52:22.933Z,75.80
2018-10-21T06:54:50.871Z,75.90
2018-10-21T06:57:18.545Z,75.80
2018-10-21T06:59:45.855Z,75.80
2018-10-21T07:02:13.340Z,76.30
2018-10-21T07:04:40.908Z,76.70
2018-10-21T07:07:08.268Z,76.40
2018-10-21T07:09:35.721Z,76.20
2018-10-21T07:12:03.191Z,76.50
2018-10-21T07:14:30.636Z,76.20
2018-10-21T07:16:58.173Z,75.80
2018-10-21T07:19:25.594Z,76.50
2018-10-21T07:21:53.104Z,76.80
2018-10-21T07:24:20.624Z,77.40
2018-10-21T07:26:48.141Z,77.80
2018-10-21T07:29:15.600Z,78.10
2018-10-21T07:31:43.380Z,78.00
2018-10-21T07:34:10.924Z,78.00
2018-10-21T07:36:38.298Z,78.70
2018-10-21T07:39:07.662Z,79.00
2018-10-21T07:41:35.056Z,79.70
2018-10-21T07:44:02.635Z,78.70
2018-10-21T07:46:36.775Z,79.10
2018-10-21T07:49:04.254Z,79.70
2018-10-21T07:51:31.685Z,78.50
2018-10-21T07:53:59.213Z,78.70
2018-10-21T07:56:26.674Z,78.70
2018-10-21T07:58:54.136Z,79.60
2018-10-21T08:01:21.671Z,80.50
2018-10-21T08:03:49.110Z,80.10
2018-10-21T08:06:29.442Z,80.30
2018-10-21T08:08:56.922Z,79.60
2018-10-21T08:11:24.454Z,79.20
2018-10-21T08:13:52.089Z,79.50
2018-10-21T08:16:19.567Z,79.30
2018-10-21T08:18:47.163Z,79.60
2018-10-21T08:21:14.659Z,79.80
2018-10-21T08:23:42.126Z,79.80
2018-10-21T08:26:09.467Z,79.70
2018-10-21T08:28:36.889Z,80.30
2018-10-21T08:31:04.397Z,79.60
2018-10-21T08:33:31.794Z,82.10
2018-10-21T08:35:59.209Z,82.10
2018-10-21T08:38:27.401Z,80.50
2018-10-21T08:40:54.819Z,80.30
2018-10-21T08:43:22.162Z,80.10
2018-10-21T08:45:49.630Z,80.20
2018-10-21T08:48:17.121Z,80.60
2018-10-21T08:50:44.558Z,80.30
2018-10-21T08:53:12.164Z,80.70
2018-10-21T08:55:39.649Z,80.90
2018-10-21T08:58:07.083Z,80.50
2018-10-21T09:00:34.584Z,80.80
2018-10-21T09:03:01.970Z,80.90
2018-10-21T09:05:29.419Z,82.00
2018-10-21T09:07:56.789Z,81.00
2018-10-21T09:10:24.302Z,80.10
2018-10-21T09:12:51.568Z,80.70
2018-10-21T09:15:19.146Z,79.70
2018-10-21T09:17:46.607Z,80.60
2018-10-21T09:20:17.004Z,80.20
2018-10-21T09:22:44.530Z,80.50
2018-10-21T09:25:12.824Z,81.60
2018-10-21T09:27:40.945Z,81.90
2018-10-21T09:30:09.629Z,82.80
2018-10-21T09:32:37.204Z,83.50
2018-10-21T09:35:05.785Z,81.80
2018-10-21T09:37:33.294Z,81.20
2018-10-21T09:40:00.980Z,80.90
2018-10-21T09:42:28.425Z,81.50
2018-10-21T09:44:55.906Z,81.70
2018-10-21T09:47:23.358Z,81.60
2018-10-21T09:49:50.828Z,81.60
2018-10-21T09:52:18.430Z,83.00
2018-10-21T09:54:45.853Z,84.00
2018-10-21T09:57:13.246Z,83.10
2018-10-21T09:59:40.699Z,82.10
2018-10-21T10:02:13.613Z,81.50
2018-10-21T10:04:41.097Z,81.80
2018-10-21T10:07:08.565Z,82.30
2018-10-21T10:09:36.102Z,82.40
2018-10-21T10:12:03.568Z,82.00
2018-10-21T10:14:30.996Z,81.30
2018-10-21T10:16:58.499Z,81.70
2018-10-21T10:19:25.973Z,82.50
2018-10-21T10:21:53.444Z,83.20
2018-10-21T10:24:20.888Z,83.00
2018-10-21T10:26:48.311Z,83.10
2018-10-21T10:29:15.725Z,83.50
2018-10-21T10:31:43.168Z,83.40
2018-10-21T10:34:10.609Z,83.30
2018-10-21T10:36:38.081Z,83.40
2018-10-21T10:39:07.966Z,83.70
2018-10-21T10:41:35.476Z,84.60
2018-10-21T10:44:02.864Z,83.80
2018-10-21T10:46:30.341Z,84.60
2018-10-21T10:48:57.832Z,84.80
2018-10-21T10:51:25.237Z,84.80
2018-10-21T10:53:52.735Z,84.50
2018-10-21T10:56:20.105Z,84.70
2018-10-21T10:58:47.518Z,84.30
2018-10-21T11:01:15.066Z,84.00
2018-10-21T11:03:42.727Z,84.00
2018-10-21T11:06:10.259Z,83.80
2018-10-21T11:08:37.698Z,83.90
2018-10-21T11:11:05.175Z,83.00
2018-10-21T11:13:32.636Z,83.00
2018-10-21T11:16:00.088Z,82.60
2018-10-21T11:18:27.456Z,81.90
2018-10-21T11:20:54.881Z,81.40
2018-10-21T11:23:22.317Z,80.20
2018-10-21T11:25:49.781Z,79.20
2018-10-21T11:28:17.378Z,79.20
2018-10-21T11:30:44.617Z,79.90
2018-10-21T11:33:12.057Z,78.20
2018-10-21T11:35:39.468Z,76.70
2018-10-21T11:38:06.916Z,76.20
2018-10-21T11:40:34.302Z,75.70
2018-10-21T11:43:01.812Z,74.50
2018-10-21T11:45:29.295Z,75.80
2018-10-21T11:47:56.702Z,73.10
2018-10-21T11:50:24.219Z,73.20
2018-10-21T11:52:51.692Z,73.40
2018-10-21T11:55:19.156Z,73.00
2018-10-21T11:57:46.558Z,73.30
2018-10-21T12:00:14.013Z,72.40
2018-10-21T12:02:41.546Z,75.80
2018-10-21T12:05:08.981Z,71.50
2018-10-21T12:07:36.444Z,70.80
2018-10-21T12:10:04.086Z,70.80
2018-10-21T12:12:31.503Z,70.90
2018-10-21T12:14:58.972Z,70.30
2018-10-21T12:17:26.588Z,72.90
2018-10-21T12:19:54.068Z,69.40
2018-10-21T12:22:21.595Z,69.80
2018-10-21T12:24:48.939Z,69.40
2018-10-21T12:27:16.356Z,69.20
2018-10-21T12:29:43.780Z,68.40
2018-10-21T12:32:11.433Z,68.00
2018-10-21T12:34:38.884Z,71.50
2018-10-21T12:37:06.371Z,68.60
2018-10-21T12:39:33.794Z,68.10
2018-10-21T12:42:01.258Z,70.10
2018-10-21T12:44:28.645Z,68.90
2018-10-21T12:46:56.047Z,65.90
2018-10-21T12:49:23.348Z,64.00
2018-10-21T12:51:50.763Z,67.50
2018-10-21T12:54:18.213Z,65.30
2018-10-21T12:56:45.589Z,62.00
2018-10-21T12:59:12.988Z,61.20
2018-10-21T13:01:40.411Z,62.40
2018-10-21T13:04:07.926Z,61.80
2018-10-21T13:06:35.373Z,62.50
2018-10-21T13:09:04.462Z,61.80
2018-10-21T13:11:31.909Z,61.20
2018-10-21T13:13:59.395Z,60.50
2018-10-21T13:16:26.887Z,59.00
2018-10-21T13:18:54.311Z,59.60
2018-10-21T13:21:21.747Z,60.60
2018-10-21T13:23:49.184Z,58.20
2018-10-21T13:26:16.609Z,59.00
2018-10-21T13:28:44.013Z,62.20
2018-10-21T13:31:11.414Z,58.80
2018-10-21T13:33:38.864Z,58.00
2018-10-21T13:36:06.263Z,58.30
2018-10-21T13:38:33.677Z,57.10
2018-10-21T13:41:01.083Z,57.50
2018-10-21T13:43:28.496Z,56.60
2018-10-21T13:45:56.006Z,57.00
2018-10-21T13:48:23.416Z,57.00
2018-10-21T13:50:50.825Z,56.70
2018-10-21T13:53:18.392Z,57.10
2018-10-21T13:55:45.846Z,56.00
2018-10-21T13:58:13.404Z,55.90
2018-10-21T14:00:40.872Z,55.50
2018-10-21T14:03:08.288Z,55.30
2018-10-21T14:05:35.809Z,54.70
2018-10-21T14:08:03.296Z,56.90
2018-10-21T14:10:31.544Z,53.50
2018-10-21T14:12:58.992Z,52.60
2018-10-21T14:15:26.499Z,53.80
2018-10-21T14:17:53.948Z,53.90
2018-10-21T14:20:21.418Z,53.50
2018-10-21T14:22:48.910Z,52.30
2018-10-21T14:25:16.368Z,52.60
2018-10-21T14:27:43.836Z,51.90
2018-10-21T14:30:11.294Z,52.10
2018-10-21T14:32:39.044Z,51.90
2018-10-21T14:35:08.063Z,51.60
2018-10-21T14:37:35.823Z,51.90
2018-10-21T14:40:03.356Z,51.00
2018-10-21T14:42:30.704Z,51.30
2018-10-21T14:44:58.174Z,51.90
2018-10-21T14:47:25.574Z,51.10
2018-10-21T14:49:53.030Z,51.50
2018-10-21T14:52:20.534Z,51.60
2018-10-21T14:54:47.985Z,50.90
2018-10-21T14:57:15.494Z,50.80
2018-10-21T14:59:42.939Z,50.10
2018-10-21T15:02:10.509Z,50.90
2018-10-21T15:04:37.982Z,50.10
2018-10-21T15:07:05.564Z,49.70
2018-10-21T15:09:32.974Z,49.40
2018-10-21T15:12:00.480Z,48.90
2018-10-21T15:14:27.848Z,48.90
2018-10-21T15:16:55.337Z,49.20
2018-10-21T15:19:22.866Z,48.60
2018-10-21T15:21:50.345Z,49.10
2018-10-21T15:24:17.807Z,48.80
2018-10-21T15:26:45.302Z,49.40
2018-10-21T15:29:12.768Z,49.30
2018-10-21T15:31:40.192Z,49.00
2018-10-21T15:34:07.663Z,48.90
2018-10-21T15:36:35.078Z,49.10
2018-10-21T15:39:02.697Z,49.10
2018-10-21T15:41:30.168Z,48.90
2018-10-21T15:46:20.565Z,49.00
2018-10-21T15:48:48.104Z,49.30
2018-10-21T15:51:15.536Z,49.40
2018-10-21T15:53:42.988Z,49.80
2018-10-21T15:56:10.480Z,49.70
2018-10-21T15:58:37.910Z,49.70
2018-10-21T16:01:05.397Z,51.00
2018-10-21T16:03:32.852Z,52.60
2018-10-21T16:06:00.301Z,53.80
2018-10-21T16:08:27.870Z,54.60
2018-10-21T16:10:55.345Z,54.90
2018-10-21T16:13:22.868Z,55.00
2018-10-21T16:15:50.275Z,54.90
2018-10-21T16:18:17.684Z,54.70
2018-10-21T16:20:45.128Z,54.90
2018-10-21T16:23:12.564Z,56.00
2018-10-21T16:25:40.033Z,56.00
2018-10-21T16:28:07.730Z,55.60
2018-10-21T16:30:35.056Z,54.90
2018-10-21T16:33:02.549Z,55.90
2018-10-21T16:35:29.945Z,56.00
2018-10-21T16:37:57.392Z,56.20
2018-10-21T16:40:24.838Z,56.50
2018-10-21T16:42:52.232Z,56.70
2018-10-21T16:45:19.795Z,55.70
2018-10-21T16:47:47.188Z,56.40
2018-10-21T16:50:15.694Z,56.30
2018-10-21T16:52:44.078Z,56.70
2018-10-21T16:55:12.257Z,56.50
2018-10-21T16:57:39.844Z,55.90
2018-10-21T17:00:10.848Z,56.40
2018-10-21T17:02:38.229Z,56.40
2018-10-21T17:05:06.135Z,56.50
2018-10-21T17:07:33.687Z,57.10
2018-10-21T17:10:01.551Z,56.60
2018-10-21T17:12:28.561Z,56.60
2018-10-21T17:14:55.948Z,56.40
2018-10-21T17:17:23.561Z,56.70
2018-10-21T17:19:51.034Z,56.70
2018-10-21T17:22:18.584Z,56.50
2018-10-21T17:24:45.885Z,56.60
2018-10-21T17:27:13.387Z,56.60
2018-10-21T17:29:40.874Z,56.90
2018-10-21T17:32:08.269Z,56.90
2018-10-21T17:34:35.737Z,57.40
2018-10-21T17:37:04.104Z,57.60
2018-10-21T17:39:31.579Z,57.90
2018-10-21T17:41:59.001Z,58.40
2018-10-21T17:44:26.402Z,58.20
2018-10-21T17:46:53.881Z,58.50
2018-10-21T17:49:21.340Z,58.80
2018-10-21T17:51:48.738Z,59.00
2018-10-21T17:54:16.140Z,59.00
2018-10-21T17:56:49.116Z,59.50
2018-10-21T17:59:16.600Z,58.90
2018-10-21T18:01:44.290Z,58.40
2018-10-21T18:04:11.760Z,58.20
2018-10-21T18:06:39.208Z,58.10
2018-10-21T18:09:08.296Z,58.40
2018-10-21T18:11:35.747Z,58.60
2018-10-21T18:14:03.313Z,58.80
2018-10-21T18:16:30.666Z,57.90
2018-10-21T18:18:58.012Z,58.50
2018-10-21T18:21:25.532Z,58.80
2018-10-21T18:23:52.987Z,59.10
2018-10-21T18:26:20.344Z,59.50
2018-10-21T18:28:47.760Z,59.60
2018-10-21T18:31:15.286Z,59.30
2018-10-21T18:33:42.670Z,59.40
2018-10-21T18:36:10.202Z,59.90
2018-10-21T18:38:37.624Z,60.00
2018-10-21T18:41:05.179Z,60.30
2018-10-21T18:43:32.516Z,59.90
2018-10-21T18:46:00.074Z,59.70
2018-10-21T18:48:27.513Z,60.00
2018-10-21T18:50:54.882Z,59.60
2018-10-21T18:53:22.317Z,60.50
2018-10-21T18:55:49.781Z,59.40
2018-10-21T18:58:17.314Z,59.40
2018-10-21T19:00:44.726Z,60.10
2018-10-21T19:03:12.216Z,60.20
2018-10-21T19:05:39.678Z,59.30
2018-10-21T19:08:07.101Z,59.50
2018-10-21T19:10:34.546Z,59.40
2018-10-21T19:13:02.049Z,59.00
2018-10-21T19:15:29.420Z,58.50
2018-10-21T19:17:56.929Z,59.00
2018-10-21T19:20:24.430Z,59.00
2018-10-21T19:22:51.879Z,58.90
2018-10-21T19:25:19.457Z,59.10
2018-10-21T19:27:46.847Z,59.40
2018-10-21T19:30:15.608Z,59.90
2018-10-21T19:32:43.270Z,59.50
2018-10-21T19:35:11.907Z,59.60
2018-10-21T19:37:40.252Z,59.30
2018-10-21T19:40:09.948Z,59.60
2018-10-21T19:42:37.452Z,60.00
2018-10-21T19:45:14.174Z,60.00
2018-10-21T19:47:42.533Z,59.90
2018-10-21T19:50:11.520Z,60.00
2018-10-21T19:52:40.029Z,60.20
2018-10-21T19:55:07.662Z,60.60
2018-10-21T19:57:35.385Z,60.40
2018-10-21T20:00:03.602Z,60.10
2018-10-21T20:02:31.041Z,59.80
2018-10-21T20:04:58.444Z,60.30
2018-10-21T20:07:25.848Z,60.50
2018-10-21T20:09:53.224Z,60.60
2018-10-21T20:12:21.137Z,60.40
2018-10-21T20:14:48.622Z,60.50
2018-10-21T20:17:16.066Z,60.60
2018-10-21T20:19:43.568Z,60.40
2018-10-21T20:22:11.744Z,60.60
2018-10-21T20:24:39.456Z,60.60
2018-10-21T20:27:07.601Z,60.40
2018-10-21T20:29:35.077Z,60.90
2018-10-21T20:32:02.645Z,60.70
2018-10-21T20:34:30.169Z,60.10
2018-10-21T20:36:57.696Z,60.40
2018-10-21T20:39:25.114Z,60.30
2018-10-21T20:41:52.514Z,60.40
2018-10-21T20:44:19.971Z,60.40
2018-10-21T20:46:47.400Z,59.80
2018-10-21T20:49:14.896Z,59.90
2018-10-21T20:51:42.767Z,60.30
2018-10-21T20:54:10.078Z,60.10
2018-10-21T20:56:37.520Z,60.80
2018-10-21T20:59:05.122Z,60.60
2018-10-21T21:01:32.541Z,60.20
2018-10-21T21:04:00.042Z,60.20
2018-10-21T21:06:27.567Z,60.20
2018-10-21T21:08:55.029Z,60.20
2018-10-21T21:11:22.456Z,60.80
2018-10-21T21:13:50.861Z,60.70
2018-10-21T21:16:18.496Z,60.50
2018-10-21T21:18:45.910Z,60.70
2018-10-21T21:21:13.421Z,60.20
2018-10-21T21:23:40.904Z,60.40
2018-10-21T21:26:08.325Z,59.90
2018-10-21T21:28:35.744Z,60.00
2018-10-21T21:31:03.279Z,60.20
2018-10-21T21:33:30.688Z,60.80
2018-10-21T21:35:58.190Z,61.00
2018-10-21T21:38:25.590Z,60.90
2018-10-21T21:40:53.050Z,61.10
2018-10-21T21:43:20.530Z,61.80
2018-10-21T21:45:47.952Z,61.70
2018-10-21T21:48:15.635Z,61.90
2018-10-21T21:50:42.935Z,61.60
2018-10-21T21:53:10.395Z,61.50
2018-10-21T21:55:37.892Z,61.60
2018-10-21T21:58:05.576Z,61.20
2018-10-21T22:00:32.910Z,60.60
2018-10-21T22:03:00.434Z,61.10
2018-10-21T22:05:27.936Z,61.30
2018-10-21T22:07:55.424Z,61.00
2018-10-21T22:10:22.974Z,61.20
2018-10-21T22:12:50.353Z,61.30
2018-10-21T22:15:17.883Z,61.60
2018-10-21T22:17:45.348Z,61.30
2018-10-21T22:20:13.386Z,61.60
2018-10-21T22:22:41.013Z,61.90
2018-10-21T22:25:08.796Z,61.40
2018-10-21T22:27:36.401Z,61.80
2018-10-21T22:30:04.841Z,61.50
2018-10-21T22:32:32.193Z,61.40
2018-10-21T22:34:59.672Z,61.50
2018-10-21T22:37:27.070Z,61.40
2018-10-21T22:39:54.590Z,61.90
2018-10-21T22:42:22.034Z,62.10
2018-10-21T22:44:49.416Z,61.70
2018-10-21T22:47:16.840Z,62.40
2018-10-21T22:49:44.247Z,61.90
2018-10-21T22:52:11.724Z,62.00
2018-10-21T22:54:39.172Z,62.20
2018-10-21T22:57:12.267Z,61.90
2018-10-21T22:59:39.792Z,61.60
2018-10-21T23:02:07.286Z,62.00
2018-10-21T23:04:34.778Z,62.70
2018-10-21T23:07:02.239Z,62.40
2018-10-21T23:09:29.707Z,62.00
2018-10-21T23:11:57.085Z,62.70
2018-10-21T23:14:24.547Z,62.90
2018-10-21T23:16:51.955Z,62.60
2018-10-21T23:19:43.008Z,63.00
2018-10-21T23:22:10.538Z,63.30
2018-10-21T23:24:38.513Z,62.70
2018-10-21T23:27:06.252Z,63.20
2018-10-21T23:29:33.738Z,62.90
2018-10-21T23:32:01.180Z,63.30
2018-10-21T23:34:28.608Z,62.80
2018-10-21T23:36:56.667Z,62.60
2018-10-21T23:39:24.456Z,62.60
2018-10-21T23:41:51.900Z,62.50
2018-10-21T23:44:19.278Z,62.60
2018-10-21T23:46:46.889Z,62.10
2018-10-21T23:49:14.681Z,62.10
2018-10-21T23:51:42.121Z,62.00
2018-10-21T23:54:09.572Z,62.40
2018-10-21T23:56:36.996Z,62.40
2018-10-21T23:59:05.078Z,62.70
